sensor_id;sensor_type;location;lat;lon;timestamp;pressure;altitude;pressure_sealevel;temperature;humidity
17521;BME280;8878;-33.370;-70.552;2022-12-15T00:00:11;92235.38;;;29.38;26.10
17521;BME280;8878;-33.370;-70.552;2022-12-15T00:03:02;92232.56;;;29.24;26.12
17521;BME280;8878;-33.370;-70.552;2022-12-15T00:05:48;92239.06;;;29.09;25.81
17521;BME280;8878;-33.370;-70.552;2022-12-15T00:08:33;92234.03;;;29.14;26.37
17521;BME280;8878;-33.370;-70.552;2022-12-15T00:11:19;92228.88;;;28.95;26.57
17521;BME280;8878;-33.370;-70.552;2022-12-15T00:14:04;92229.56;;;28.85;27.49
17521;BME280;8878;-33.370;-70.552;2022-12-15T00:16:51;92234.56;;;28.79;26.91
17521;BME280;8878;-33.370;-70.552;2022-12-15T00:19:37;92232.47;;;28.62;27.16
17521;BME280;8878;-33.370;-70.552;2022-12-15T00:22:23;92241.47;;;28.70;27.05
17521;BME280;8878;-33.370;-70.552;2022-12-15T00:25:08;92240.75;;;28.32;26.89
17521;BME280;8878;-33.370;-70.552;2022-12-15T00:27:56;92246.09;;;28.25;26.87
17521;BME280;8878;-33.370;-70.552;2022-12-15T00:30:42;92245.66;;;28.20;27.08
17521;BME280;8878;-33.370;-70.552;2022-12-15T00:33:29;92258.53;;;28.30;27.08
17521;BME280;8878;-33.370;-70.552;2022-12-15T00:36:16;92258.34;;;28.12;26.64
17521;BME280;8878;-33.370;-70.552;2022-12-15T00:39:01;92267.41;;;27.60;27.04
17521;BME280;8878;-33.370;-70.552;2022-12-15T00:41:31;92273.03;;;27.48;27.79
17521;BME280;8878;-33.370;-70.552;2022-12-15T00:44:00;92275.38;;;27.49;27.21
17521;BME280;8878;-33.370;-70.552;2022-12-15T00:46:29;92279.63;;;27.20;27.56
17521;BME280;8878;-33.370;-70.552;2022-12-15T00:49:17;92280.69;;;27.42;28.13
17521;BME280;8878;-33.370;-70.552;2022-12-15T00:52:02;92285.75;;;27.17;28.14
17521;BME280;8878;-33.370;-70.552;2022-12-15T00:54:50;92293.31;;;27.05;27.84
17521;BME280;8878;-33.370;-70.552;2022-12-15T00:57:38;92300.41;;;26.67;28.57
17521;BME280;8878;-33.370;-70.552;2022-12-15T01:00:24;92299.81;;;27.26;29.15
17521;BME280;8878;-33.370;-70.552;2022-12-15T01:03:11;92300.50;;;27.50;30.26
17521;BME280;8878;-33.370;-70.552;2022-12-15T01:05:59;92291.94;;;27.44;30.68
17521;BME280;8878;-33.370;-70.552;2022-12-15T01:08:45;92290.56;;;27.54;30.77
17521;BME280;8878;-33.370;-70.552;2022-12-15T01:11:31;92286.34;;;27.56;30.65
17521;BME280;8878;-33.370;-70.552;2022-12-15T01:14:17;92285.97;;;27.32;31.11
17521;BME280;8878;-33.370;-70.552;2022-12-15T01:17:02;92280.13;;;27.29;32.33
17521;BME280;8878;-33.370;-70.552;2022-12-15T01:19:48;92277.16;;;27.12;31.19
17521;BME280;8878;-33.370;-70.552;2022-12-15T01:22:35;92279.09;;;26.66;31.24
17521;BME280;8878;-33.370;-70.552;2022-12-15T01:25:06;92290.72;;;26.89;30.67
17521;BME280;8878;-33.370;-70.552;2022-12-15T01:27:35;92283.53;;;27.00;34.63
17521;BME280;8878;-33.370;-70.552;2022-12-15T01:30:06;92286.09;;;26.89;35.52
17521;BME280;8878;-33.370;-70.552;2022-12-15T01:32:36;92285.72;;;26.68;34.21
17521;BME280;8878;-33.370;-70.552;2022-12-15T01:35:07;92282.97;;;26.42;33.58
17521;BME280;8878;-33.370;-70.552;2022-12-15T01:37:38;92288.91;;;26.28;33.28
17521;BME280;8878;-33.370;-70.552;2022-12-15T01:40:11;92288.63;;;26.14;32.90
17521;BME280;8878;-33.370;-70.552;2022-12-15T01:42:57;92285.16;;;26.36;32.94
17521;BME280;8878;-33.370;-70.552;2022-12-15T01:45:49;92278.28;;;26.62;34.76
17521;BME280;8878;-33.370;-70.552;2022-12-15T01:48:22;92276.13;;;26.71;35.75
17521;BME280;8878;-33.370;-70.552;2022-12-15T01:50:58;92275.22;;;26.40;34.28
17521;BME280;8878;-33.370;-70.552;2022-12-15T01:53:32;92274.50;;;26.24;32.94
17521;BME280;8878;-33.370;-70.552;2022-12-15T01:56:05;92277.41;;;25.93;32.00
17521;BME280;8878;-33.370;-70.552;2022-12-15T01:58:37;92277.31;;;25.89;32.56
17521;BME280;8878;-33.370;-70.552;2022-12-15T02:01:09;92278.16;;;26.12;32.66
17521;BME280;8878;-33.370;-70.552;2022-12-15T02:03:39;92269.25;;;26.31;36.66
17521;BME280;8878;-33.370;-70.552;2022-12-15T02:06:10;92265.09;;;26.37;37.06
17521;BME280;8878;-33.370;-70.552;2022-12-15T02:08:44;92272.66;;;26.09;34.99
17521;BME280;8878;-33.370;-70.552;2022-12-15T02:11:37;92268.09;;;25.90;35.43
17521;BME280;8878;-33.370;-70.552;2022-12-15T02:14:11;92266.22;;;25.94;34.63
17521;BME280;8878;-33.370;-70.552;2022-12-15T02:16:55;92261.72;;;26.21;34.45
17521;BME280;8878;-33.370;-70.552;2022-12-15T02:20:02;92250.00;;;26.13;36.43
17521;BME280;8878;-33.370;-70.552;2022-12-15T02:22:50;92253.69;;;26.05;35.65
17521;BME280;8878;-33.370;-70.552;2022-12-15T02:25:41;92260.25;;;26.04;37.39
17521;BME280;8878;-33.370;-70.552;2022-12-15T02:28:19;92256.69;;;25.81;36.73
17521;BME280;8878;-33.370;-70.552;2022-12-15T02:30:54;92245.41;;;25.76;36.92
17521;BME280;8878;-33.370;-70.552;2022-12-15T02:33:42;92247.19;;;25.68;37.22
17521;BME280;8878;-33.370;-70.552;2022-12-15T02:36:21;92248.75;;;25.69;38.10
17521;BME280;8878;-33.370;-70.552;2022-12-15T02:38:53;92246.38;;;25.48;35.78
17521;BME280;8878;-33.370;-70.552;2022-12-15T02:41:33;92244.72;;;25.44;35.42
17521;BME280;8878;-33.370;-70.552;2022-12-15T02:44:06;92251.63;;;25.41;35.06
17521;BME280;8878;-33.370;-70.552;2022-12-15T02:46:50;92239.78;;;25.65;36.22
17521;BME280;8878;-33.370;-70.552;2022-12-15T02:49:30;92241.88;;;25.71;36.87
17521;BME280;8878;-33.370;-70.552;2022-12-15T02:52:11;92240.16;;;25.63;37.43
17521;BME280;8878;-33.370;-70.552;2022-12-15T02:55:01;92230.81;;;25.42;37.66
17521;BME280;8878;-33.370;-70.552;2022-12-15T02:57:41;92232.50;;;25.30;37.85
17521;BME280;8878;-33.370;-70.552;2022-12-15T03:00:13;92233.69;;;25.14;37.36
17521;BME280;8878;-33.370;-70.552;2022-12-15T03:02:47;92235.81;;;24.89;36.14
17521;BME280;8878;-33.370;-70.552;2022-12-15T03:05:19;92234.34;;;25.07;37.04
17521;BME280;8878;-33.370;-70.552;2022-12-15T03:07:49;92225.03;;;25.24;37.41
17521;BME280;8878;-33.370;-70.552;2022-12-15T03:10:22;92233.84;;;25.21;37.06
17521;BME280;8878;-33.370;-70.552;2022-12-15T03:12:52;92239.25;;;25.21;36.66
17521;BME280;8878;-33.370;-70.552;2022-12-15T03:15:22;92232.34;;;25.23;36.54
17521;BME280;8878;-33.370;-70.552;2022-12-15T03:17:53;92230.28;;;25.17;36.44
17521;BME280;8878;-33.370;-70.552;2022-12-15T03:20:23;92229.59;;;25.20;37.09
17521;BME280;8878;-33.370;-70.552;2022-12-15T03:22:52;92228.84;;;25.23;37.82
17521;BME280;8878;-33.370;-70.552;2022-12-15T03:25:23;92230.28;;;25.17;37.15
17521;BME280;8878;-33.370;-70.552;2022-12-15T03:27:52;92229.88;;;25.15;37.30
17521;BME280;8878;-33.370;-70.552;2022-12-15T03:30:22;92227.09;;;25.11;36.31
17521;BME280;8878;-33.370;-70.552;2022-12-15T03:32:53;92239.34;;;25.09;36.06
17521;BME280;8878;-33.370;-70.552;2022-12-15T03:35:24;92229.72;;;25.08;37.54
17521;BME280;8878;-33.370;-70.552;2022-12-15T03:37:53;92237.22;;;24.99;36.72
17521;BME280;8878;-33.370;-70.552;2022-12-15T03:40:22;92244.03;;;24.92;37.97
17521;BME280;8878;-33.370;-70.552;2022-12-15T03:42:51;92236.16;;;24.87;37.74
17521;BME280;8878;-33.370;-70.552;2022-12-15T03:45:22;92233.91;;;24.89;38.27
17521;BME280;8878;-33.370;-70.552;2022-12-15T03:47:54;92234.81;;;24.78;38.81
17521;BME280;8878;-33.370;-70.552;2022-12-15T03:50:25;92236.03;;;24.65;39.66
17521;BME280;8878;-33.370;-70.552;2022-12-15T03:52:56;92233.69;;;24.63;39.38
17521;BME280;8878;-33.370;-70.552;2022-12-15T03:55:25;92231.44;;;24.65;39.80
17521;BME280;8878;-33.370;-70.552;2022-12-15T03:57:56;92237.69;;;24.53;40.52
17521;BME280;8878;-33.370;-70.552;2022-12-15T04:00:25;92228.31;;;24.47;39.74
17521;BME280;8878;-33.370;-70.552;2022-12-15T04:02:56;92221.69;;;24.45;39.84
17521;BME280;8878;-33.370;-70.552;2022-12-15T04:05:27;92230.94;;;24.44;38.91
17521;BME280;8878;-33.370;-70.552;2022-12-15T04:07:58;92226.13;;;24.22;38.05
17521;BME280;8878;-33.370;-70.552;2022-12-15T04:10:28;92228.22;;;24.28;37.27
17521;BME280;8878;-33.370;-70.552;2022-12-15T04:12:58;92218.47;;;24.39;37.54
17521;BME280;8878;-33.370;-70.552;2022-12-15T04:15:28;92218.63;;;24.46;38.36
17521;BME280;8878;-33.370;-70.552;2022-12-15T04:18:00;92219.34;;;24.43;38.32
17521;BME280;8878;-33.370;-70.552;2022-12-15T04:20:31;92225.19;;;24.30;39.07
17521;BME280;8878;-33.370;-70.552;2022-12-15T04:23:00;92212.78;;;24.13;39.82
17521;BME280;8878;-33.370;-70.552;2022-12-15T04:25:29;92218.88;;;24.10;40.15
17521;BME280;8878;-33.370;-70.552;2022-12-15T04:28:14;92221.88;;;24.21;39.60
17521;BME280;8878;-33.370;-70.552;2022-12-15T04:31:02;92223.31;;;24.18;39.21
17521;BME280;8878;-33.370;-70.552;2022-12-15T04:33:55;92217.91;;;24.18;38.68
17521;BME280;8878;-33.370;-70.552;2022-12-15T04:36:44;92211.09;;;24.21;38.84
17521;BME280;8878;-33.370;-70.552;2022-12-15T04:39:32;92214.44;;;24.17;39.67
17521;BME280;8878;-33.370;-70.552;2022-12-15T04:42:18;92213.84;;;24.24;39.29
17521;BME280;8878;-33.370;-70.552;2022-12-15T04:45:06;92212.72;;;24.25;39.01
17521;BME280;8878;-33.370;-70.552;2022-12-15T04:47:52;92213.84;;;24.24;39.47
17521;BME280;8878;-33.370;-70.552;2022-12-15T04:50:39;92205.94;;;24.15;39.67
17521;BME280;8878;-33.370;-70.552;2022-12-15T04:53:25;92223.44;;;24.22;39.37
17521;BME280;8878;-33.370;-70.552;2022-12-15T04:56:13;92213.31;;;24.18;39.31
17521;BME280;8878;-33.370;-70.552;2022-12-15T04:58:59;92214.09;;;24.03;40.09
17521;BME280;8878;-33.370;-70.552;2022-12-15T05:01:45;92215.22;;;24.02;39.47
17521;BME280;8878;-33.370;-70.552;2022-12-15T05:04:30;92210.00;;;24.09;38.68
17521;BME280;8878;-33.370;-70.552;2022-12-15T05:07:18;92210.09;;;24.13;39.17
17521;BME280;8878;-33.370;-70.552;2022-12-15T05:10:05;92204.44;;;24.02;39.28
17521;BME280;8878;-33.370;-70.552;2022-12-15T05:12:53;92204.44;;;24.02;39.30
17521;BME280;8878;-33.370;-70.552;2022-12-15T05:15:39;92209.81;;;23.87;40.48
17521;BME280;8878;-33.370;-70.552;2022-12-15T05:18:25;92203.03;;;23.77;40.92
17521;BME280;8878;-33.370;-70.552;2022-12-15T05:21:11;92202.56;;;23.75;40.37
17521;BME280;8878;-33.370;-70.552;2022-12-15T05:24:00;92198.22;;;23.70;40.88
17521;BME280;8878;-33.370;-70.552;2022-12-15T05:26:46;92195.19;;;23.72;41.15
17521;BME280;8878;-33.370;-70.552;2022-12-15T05:29:31;92190.81;;;23.67;40.30
17521;BME280;8878;-33.370;-70.552;2022-12-15T05:32:17;92184.25;;;23.65;41.02
17521;BME280;8878;-33.370;-70.552;2022-12-15T05:34:46;92179.53;;;23.62;41.55
17521;BME280;8878;-33.370;-70.552;2022-12-15T05:37:15;92172.38;;;23.54;42.07
17521;BME280;8878;-33.370;-70.552;2022-12-15T05:39:49;92173.50;;;23.53;41.98
17521;BME280;8878;-33.370;-70.552;2022-12-15T05:42:18;92166.78;;;23.47;41.69
17521;BME280;8878;-33.370;-70.552;2022-12-15T05:44:47;92156.41;;;23.61;41.52
17521;BME280;8878;-33.370;-70.552;2022-12-15T05:47:17;92158.00;;;23.62;41.48
17521;BME280;8878;-33.370;-70.552;2022-12-15T05:49:46;92145.81;;;23.68;40.63
17521;BME280;8878;-33.370;-70.552;2022-12-15T05:52:15;92140.03;;;23.66;40.24
17521;BME280;8878;-33.370;-70.552;2022-12-15T05:54:45;92148.84;;;23.66;40.21
17521;BME280;8878;-33.370;-70.552;2022-12-15T05:57:16;92142.72;;;23.66;40.25
17521;BME280;8878;-33.370;-70.552;2022-12-15T05:59:45;92145.50;;;23.69;39.82
17521;BME280;8878;-33.370;-70.552;2022-12-15T06:02:14;92135.31;;;23.63;40.68
17521;BME280;8878;-33.370;-70.552;2022-12-15T06:04:43;92132.19;;;23.61;39.85
17521;BME280;8878;-33.370;-70.552;2022-12-15T06:07:13;92128.03;;;23.63;39.76
17521;BME280;8878;-33.370;-70.552;2022-12-15T06:09:42;92127.84;;;23.56;39.79
17521;BME280;8878;-33.370;-70.552;2022-12-15T06:12:11;92120.22;;;23.46;39.55
17521;BME280;8878;-33.370;-70.552;2022-12-15T06:14:42;92122.91;;;23.46;40.85
17521;BME280;8878;-33.370;-70.552;2022-12-15T06:17:11;92115.06;;;23.53;41.09
17521;BME280;8878;-33.370;-70.552;2022-12-15T06:19:41;92111.75;;;23.60;40.91
17521;BME280;8878;-33.370;-70.552;2022-12-15T06:22:10;92111.75;;;23.60;40.14
17521;BME280;8878;-33.370;-70.552;2022-12-15T06:24:39;92096.56;;;23.52;40.58
17521;BME280;8878;-33.370;-70.552;2022-12-15T06:27:08;92101.72;;;23.29;41.36
17521;BME280;8878;-33.370;-70.552;2022-12-15T06:29:38;92101.41;;;23.18;42.20
17521;BME280;8878;-33.370;-70.552;2022-12-15T06:32:09;92092.16;;;23.16;41.65
17521;BME280;8878;-33.370;-70.552;2022-12-15T06:34:38;92097.41;;;23.12;41.97
17521;BME280;8878;-33.370;-70.552;2022-12-15T06:37:07;92086.38;;;23.01;42.16
17521;BME280;8878;-33.370;-70.552;2022-12-15T06:39:37;92082.47;;;22.99;42.01
17521;BME280;8878;-33.370;-70.552;2022-12-15T06:42:07;92079.72;;;22.83;42.00
17521;BME280;8878;-33.370;-70.552;2022-12-15T06:44:36;92079.81;;;22.87;42.07
17521;BME280;8878;-33.370;-70.552;2022-12-15T06:47:05;92071.25;;;22.97;42.08
17521;BME280;8878;-33.370;-70.552;2022-12-15T06:49:36;92076.56;;;23.09;41.94
17521;BME280;8878;-33.370;-70.552;2022-12-15T06:52:05;92080.59;;;23.15;41.72
17521;BME280;8878;-33.370;-70.552;2022-12-15T06:54:35;92070.94;;;23.14;41.52
17521;BME280;8878;-33.370;-70.552;2022-12-15T06:57:04;92072.06;;;23.13;41.45
17521;BME280;8878;-33.370;-70.552;2022-12-15T06:59:33;92064.56;;;22.91;42.15
17521;BME280;8878;-33.370;-70.552;2022-12-15T07:02:03;92045.56;;;22.72;42.44
17521;BME280;8878;-33.370;-70.552;2022-12-15T07:04:35;92053.56;;;22.56;42.01
17521;BME280;8878;-33.370;-70.552;2022-12-15T07:07:05;92039.66;;;22.66;41.93
17521;BME280;8878;-33.370;-70.552;2022-12-15T07:09:34;92042.22;;;22.62;41.44
17521;BME280;8878;-33.370;-70.552;2022-12-15T07:12:03;92044.56;;;22.36;42.12
17521;BME280;8878;-33.370;-70.552;2022-12-15T07:14:33;92039.47;;;22.47;41.66
17521;BME280;8878;-33.370;-70.552;2022-12-15T07:17:02;92040.91;;;22.56;41.58
17521;BME280;8878;-33.370;-70.552;2022-12-15T07:19:31;92040.78;;;22.53;41.33
17521;BME280;8878;-33.370;-70.552;2022-12-15T07:22:03;92031.53;;;22.50;41.28
17521;BME280;8878;-33.370;-70.552;2022-12-15T07:24:32;92022.34;;;22.51;41.98
17521;BME280;8878;-33.370;-70.552;2022-12-15T07:27:01;92021.19;;;22.52;42.16
17521;BME280;8878;-33.370;-70.552;2022-12-15T07:29:30;92023.22;;;22.55;41.47
17521;BME280;8878;-33.370;-70.552;2022-12-15T07:32:00;92028.31;;;22.45;41.66
17521;BME280;8878;-33.370;-70.552;2022-12-15T07:34:29;92026.91;;;22.23;42.29
17521;BME280;8878;-33.370;-70.552;2022-12-15T07:36:59;92026.91;;;22.11;42.16
17521;BME280;8878;-33.370;-70.552;2022-12-15T07:39:31;92033.56;;;22.01;42.21
17521;BME280;8878;-33.370;-70.552;2022-12-15T07:42:00;92029.84;;;22.06;41.89
17521;BME280;8878;-33.370;-70.552;2022-12-15T07:44:29;92030.38;;;22.11;41.79
17521;BME280;8878;-33.370;-70.552;2022-12-15T07:46:59;92024.22;;;22.11;41.77
17521;BME280;8878;-33.370;-70.552;2022-12-15T07:49:29;92027.25;;;22.21;41.16
17521;BME280;8878;-33.370;-70.552;2022-12-15T07:51:58;92020.31;;;22.48;40.34
17521;BME280;8878;-33.370;-70.552;2022-12-15T07:54:32;92024.59;;;22.49;40.28
17521;BME280;8878;-33.370;-70.552;2022-12-15T07:57:01;92019.25;;;22.37;41.21
17521;BME280;8878;-33.370;-70.552;2022-12-15T07:59:31;92025.22;;;22.31;41.50
17521;BME280;8878;-33.370;-70.552;2022-12-15T08:02:01;92018.53;;;22.12;42.14
17521;BME280;8878;-33.370;-70.552;2022-12-15T08:04:30;92016.38;;;22.18;41.93
17521;BME280;8878;-33.370;-70.552;2022-12-15T08:07:00;92014.25;;;22.23;42.30
17521;BME280;8878;-33.370;-70.552;2022-12-15T08:09:31;92015.00;;;22.24;41.49
17521;BME280;8878;-33.370;-70.552;2022-12-15T08:12:00;92016.81;;;22.20;42.03
17521;BME280;8878;-33.370;-70.552;2022-12-15T08:14:29;92014.34;;;22.27;42.52
17521;BME280;8878;-33.370;-70.552;2022-12-15T08:16:58;92023.97;;;22.28;43.25
17521;BME280;8878;-33.370;-70.552;2022-12-15T08:19:28;92024.22;;;22.23;43.15
17521;BME280;8878;-33.370;-70.552;2022-12-15T08:21:58;92015.66;;;22.33;43.32
17521;BME280;8878;-33.370;-70.552;2022-12-15T08:24:30;92024.00;;;22.16;42.34
17521;BME280;8878;-33.370;-70.552;2022-12-15T08:26:59;92026.44;;;22.21;41.55
17521;BME280;8878;-33.370;-70.552;2022-12-15T08:29:29;92029.09;;;22.33;41.97
17521;BME280;8878;-33.370;-70.552;2022-12-15T08:31:59;92035.78;;;22.51;42.31
17521;BME280;8878;-33.370;-70.552;2022-12-15T08:34:28;92045.34;;;22.37;41.45
17521;BME280;8878;-33.370;-70.552;2022-12-15T08:36:57;92041.63;;;22.41;42.86
17521;BME280;8878;-33.370;-70.552;2022-12-15T08:39:26;92046.34;;;22.44;41.84
17521;BME280;8878;-33.370;-70.552;2022-12-15T08:41:57;92053.94;;;22.42;41.94
17521;BME280;8878;-33.370;-70.552;2022-12-15T08:44:27;92053.69;;;22.47;42.64
17521;BME280;8878;-33.370;-70.552;2022-12-15T08:46:56;92053.81;;;22.51;43.99
17521;BME280;8878;-33.370;-70.552;2022-12-15T08:49:25;92050.22;;;22.47;44.15
17521;BME280;8878;-33.370;-70.552;2022-12-15T08:51:54;92052.13;;;22.46;43.18
17521;BME280;8878;-33.370;-70.552;2022-12-15T08:54:24;92061.69;;;22.32;43.97
17521;BME280;8878;-33.370;-70.552;2022-12-15T08:56:53;92059.47;;;22.21;44.32
17521;BME280;8878;-33.370;-70.552;2022-12-15T08:59:24;92053.53;;;22.28;46.50
17521;BME280;8878;-33.370;-70.552;2022-12-15T09:01:53;92057.47;;;22.31;46.09
17521;BME280;8878;-33.370;-70.552;2022-12-15T09:04:22;92065.06;;;22.29;45.70
17521;BME280;8878;-33.370;-70.552;2022-12-15T09:06:52;92070.13;;;22.18;45.97
17521;BME280;8878;-33.370;-70.552;2022-12-15T09:09:22;92071.47;;;22.12;45.10
17521;BME280;8878;-33.370;-70.552;2022-12-15T09:11:51;92072.59;;;21.99;45.40
17521;BME280;8878;-33.370;-70.552;2022-12-15T09:14:20;92074.38;;;21.82;45.57
17521;BME280;8878;-33.370;-70.552;2022-12-15T09:16:51;92080.75;;;21.66;45.86
17521;BME280;8878;-33.370;-70.552;2022-12-15T09:19:22;92082.09;;;21.84;45.62
17521;BME280;8878;-33.370;-70.552;2022-12-15T09:21:52;92082.56;;;21.98;45.53
17521;BME280;8878;-33.370;-70.552;2022-12-15T09:24:21;92085.00;;;21.91;44.19
17521;BME280;8878;-33.370;-70.552;2022-12-15T09:26:51;92083.69;;;21.97;45.24
17521;BME280;8878;-33.370;-70.552;2022-12-15T09:29:20;92080.00;;;22.02;45.84
17521;BME280;8878;-33.370;-70.552;2022-12-15T09:31:51;92079.75;;;22.07;44.81
17521;BME280;8878;-33.370;-70.552;2022-12-15T09:34:21;92078.84;;;22.03;44.55
17521;BME280;8878;-33.370;-70.552;2022-12-15T09:36:51;92075.75;;;22.01;44.98
17521;BME280;8878;-33.370;-70.552;2022-12-15T09:39:20;92082.47;;;22.07;45.08
17521;BME280;8878;-33.370;-70.552;2022-12-15T09:41:52;92077.88;;;22.07;44.82
17521;BME280;8878;-33.370;-70.552;2022-12-15T09:44:24;92077.19;;;21.98;45.55
17521;BME280;8878;-33.370;-70.552;2022-12-15T09:47:15;92079.75;;;21.95;45.54
17521;BME280;8878;-33.370;-70.552;2022-12-15T09:49:52;92085.38;;;22.02;44.44
17521;BME280;8878;-33.370;-70.552;2022-12-15T09:52:25;92078.97;;;21.94;44.06
17521;BME280;8878;-33.370;-70.552;2022-12-15T09:54:55;92085.81;;;22.04;44.04
17521;BME280;8878;-33.370;-70.552;2022-12-15T09:57:35;92086.72;;;22.08;44.37
17521;BME280;8878;-33.370;-70.552;2022-12-15T10:00:13;92087.25;;;22.13;44.50
17521;BME280;8878;-33.370;-70.552;2022-12-15T10:06:04;92091.28;;;22.07;44.99
17521;BME280;8878;-33.370;-70.552;2022-12-15T10:08:36;92092.28;;;21.91;45.05
17521;BME280;8878;-33.370;-70.552;2022-12-15T10:11:20;92092.16;;;21.75;44.79
17521;BME280;8878;-33.370;-70.552;2022-12-15T10:13:54;92105.47;;;21.71;45.18
17521;BME280;8878;-33.370;-70.552;2022-12-15T10:16:31;92099.22;;;21.79;45.87
17521;BME280;8878;-33.370;-70.552;2022-12-15T10:19:09;92106.63;;;21.95;45.51
17521;BME280;8878;-33.370;-70.552;2022-12-15T10:21:40;92102.84;;;22.08;44.77
17521;BME280;8878;-33.370;-70.552;2022-12-15T10:24:15;92105.94;;;21.85;44.54
17521;BME280;8878;-33.370;-70.552;2022-12-15T10:26:51;92105.72;;;21.78;45.01
17521;BME280;8878;-33.370;-70.552;2022-12-15T10:29:28;92100.66;;;21.89;44.09
17521;BME280;8878;-33.370;-70.552;2022-12-15T10:32:03;92101.03;;;22.00;44.27
17521;BME280;8878;-33.370;-70.552;2022-12-15T10:34:36;92110.38;;;21.81;45.10
17521;BME280;8878;-33.370;-70.552;2022-12-15T10:37:08;92103.41;;;22.01;44.41
17521;BME280;8878;-33.370;-70.552;2022-12-15T10:39:43;92098.81;;;22.02;44.54
17521;BME280;8878;-33.370;-70.552;2022-12-15T10:42:18;92101.00;;;22.24;44.07
17521;BME280;8878;-33.370;-70.552;2022-12-15T10:44:49;92102.56;;;22.25;44.31
17521;BME280;8878;-33.370;-70.552;2022-12-15T10:47:22;92103.22;;;22.46;43.71
17521;BME280;8878;-33.370;-70.552;2022-12-15T10:49:54;92101.19;;;22.55;43.48
17521;BME280;8878;-33.370;-70.552;2022-12-15T10:52:26;92101.50;;;22.66;42.75
17521;BME280;8878;-33.370;-70.552;2022-12-15T10:55:01;92098.00;;;22.78;42.34
17521;BME280;8878;-33.370;-70.552;2022-12-15T10:57:30;92096.16;;;22.94;42.15
17521;BME280;8878;-33.370;-70.552;2022-12-15T11:00:25;92095.38;;;23.21;41.97
17521;BME280;8878;-33.370;-70.552;2022-12-15T11:02:56;92092.84;;;23.28;41.25
17521;BME280;8878;-33.370;-70.552;2022-12-15T11:05:29;92093.91;;;23.39;40.58
17521;BME280;8878;-33.370;-70.552;2022-12-15T11:08:13;92094.47;;;23.61;40.83
17521;BME280;8878;-33.370;-70.552;2022-12-15T11:10:49;92089.44;;;23.75;40.15
17521;BME280;8878;-33.370;-70.552;2022-12-15T11:13:35;92099.25;;;23.83;40.76
17521;BME280;8878;-33.370;-70.552;2022-12-15T11:16:15;92088.13;;;24.00;40.37
17521;BME280;8878;-33.370;-70.552;2022-12-15T11:18:46;92091.34;;;24.06;39.51
17521;BME280;8878;-33.370;-70.552;2022-12-15T11:21:23;92090.44;;;24.17;39.48
17521;BME280;8878;-33.370;-70.552;2022-12-15T11:24:00;92093.47;;;24.16;40.21
17521;BME280;8878;-33.370;-70.552;2022-12-15T11:26:43;92095.19;;;24.21;39.57
17521;BME280;8878;-33.370;-70.552;2022-12-15T11:29:22;92102.03;;;24.34;37.64
17521;BME280;8878;-33.370;-70.552;2022-12-15T11:31:53;92095.19;;;24.55;37.11
17521;BME280;8878;-33.370;-70.552;2022-12-15T11:34:24;92104.16;;;24.79;36.39
17521;BME280;8878;-33.370;-70.552;2022-12-15T11:40:16;92096.09;;;24.44;36.87
17521;BME280;8878;-33.370;-70.552;2022-12-15T11:43:00;92095.25;;;24.59;37.81
17521;BME280;8878;-33.370;-70.552;2022-12-15T11:45:38;92091.97;;;24.50;38.74
17521;BME280;8878;-33.370;-70.552;2022-12-15T11:48:13;92091.91;;;24.66;38.24
17521;BME280;8878;-33.370;-70.552;2022-12-15T11:50:52;92101.50;;;24.63;38.43
17521;BME280;8878;-33.370;-70.552;2022-12-15T11:53:37;92092.69;;;24.47;38.31
17521;BME280;8878;-33.370;-70.552;2022-12-15T11:56:17;92093.63;;;24.74;37.07
17521;BME280;8878;-33.370;-70.552;2022-12-15T11:59:25;92096.00;;;24.94;37.35
17521;BME280;8878;-33.370;-70.552;2022-12-15T12:05:17;92088.28;;;25.12;37.42
17521;BME280;8878;-33.370;-70.552;2022-12-15T12:07:52;92087.59;;;25.38;37.75
17521;BME280;8878;-33.370;-70.552;2022-12-15T12:10:38;92091.16;;;25.23;37.11
17521;BME280;8878;-33.370;-70.552;2022-12-15T12:13:17;92089.19;;;25.20;37.77
17521;BME280;8878;-33.370;-70.552;2022-12-15T12:15:55;92087.69;;;25.03;37.43
17521;BME280;8878;-33.370;-70.552;2022-12-15T12:18:27;92087.31;;;25.24;37.26
17521;BME280;8878;-33.370;-70.552;2022-12-15T12:21:01;92077.91;;;25.56;36.21
17521;BME280;8878;-33.370;-70.552;2022-12-15T12:23:37;92070.44;;;25.27;36.18
17521;BME280;8878;-33.370;-70.552;2022-12-15T12:26:11;92074.78;;;25.12;37.04
17521;BME280;8878;-33.370;-70.552;2022-12-15T12:28:47;92081.41;;;25.80;36.55
17521;BME280;8878;-33.370;-70.552;2022-12-15T12:31:28;92064.94;;;25.65;36.72
17521;BME280;8878;-33.370;-70.552;2022-12-15T12:34:07;92075.06;;;25.49;37.18
17521;BME280;8878;-33.370;-70.552;2022-12-15T12:36:41;92066.22;;;25.71;36.90
17521;BME280;8878;-33.370;-70.552;2022-12-15T12:39:16;92063.06;;;25.47;36.33
17521;BME280;8878;-33.370;-70.552;2022-12-15T12:41:54;92064.47;;;25.83;35.76
17521;BME280;8878;-33.370;-70.552;2022-12-15T12:44:29;92057.38;;;25.97;35.47
17521;BME280;8878;-33.370;-70.552;2022-12-15T12:47:06;92058.72;;;25.61;36.66
17521;BME280;8878;-33.370;-70.552;2022-12-15T12:49:41;92059.84;;;25.83;36.76
17521;BME280;8878;-33.370;-70.552;2022-12-15T12:52:19;92054.06;;;26.07;36.47
17521;BME280;8878;-33.370;-70.552;2022-12-15T12:54:56;92043.66;;;26.09;36.81
17521;BME280;8878;-33.370;-70.552;2022-12-15T12:57:38;92045.75;;;26.46;36.45
17521;BME280;8878;-33.370;-70.552;2022-12-15T13:00:18;92051.09;;;26.16;35.45
17521;BME280;8878;-33.370;-70.552;2022-12-15T13:05:46;92052.75;;;25.98;36.42
17521;BME280;8878;-33.370;-70.552;2022-12-15T13:08:46;92034.56;;;26.21;35.71
17521;BME280;8878;-33.370;-70.552;2022-12-15T13:14:39;92043.75;;;26.73;35.20
17521;BME280;8878;-33.370;-70.552;2022-12-15T13:17:15;92033.00;;;26.46;34.96
17521;BME280;8878;-33.370;-70.552;2022-12-15T13:20:05;92037.44;;;26.62;35.06
17521;BME280;8878;-33.370;-70.552;2022-12-15T13:22:37;92029.09;;;26.74;35.06
17521;BME280;8878;-33.370;-70.552;2022-12-15T13:25:30;92034.44;;;26.97;34.69
17521;BME280;8878;-33.370;-70.552;2022-12-15T13:28:14;92026.19;;;27.19;34.81
17521;BME280;8878;-33.370;-70.552;2022-12-15T13:31:20;92022.91;;;27.03;34.00
17521;BME280;8878;-33.370;-70.552;2022-12-15T13:33:59;92024.97;;;27.13;35.35
17521;BME280;8878;-33.370;-70.552;2022-12-15T13:36:51;92022.19;;;27.47;34.43
17521;BME280;8878;-33.370;-70.552;2022-12-15T13:39:53;92015.66;;;27.14;34.47